الصفحة الرئيسية
METAR-TAF:

METAR-TAF

مطار :

مطار شيان شيانيانغ الدولي

شيان, جمهورية الصين الشعبية

دائرة عرض: 34-26N, خط طول: 108-45E, ارتفاع: 479 متر

مراقبة الطقس الحالي

تاريخ ووقت الإصدار 1ساعة و 0 دقيقة قبل الساعة 10:00UTC
ريح 6 عقدة من الشرق
درجة الحرارة 7°درجة مئوية
الرطوبة 45%
ضغط 1021 hPa
الرؤية 10 كم أو أكثر
الغيوم لا تقل 1500 م ولا وجود لمزنة ركامية السحاب الأسود

METAR: ZLXY 261000Z 08003MPS CAVOK 07/M04 Q1021 NOSIG

زمن: 19:00 (11:00 UTC)

توقعات

تاريخ ووقت الإصدار 7ساعات و 55 دقيقة قبل الساعة 03:05UTC
التوقعات صالحة من26 الساعة 06 UTC إلى 27 الساعة 06 UTC
ريح 6 عقدة من الشرق
الرؤية: 5000 متر
العجاج

TAF: ZLXY 260305Z 2606/2706 08003MPS 5000 HZ NSC TX09/2608Z TNM03/2623Z

أرصاد الطقس والتوقعات من أكثر من 4000 مطار (تقارير الطقس للمطار METAR والتنبؤ بالطقس بالمطارTAF).

المحطات المتاحة هي النقط الصفراء والحمراء على الخريطة.

حرك المؤشر فوق النقطة لمعرفة اسم المحطة.

ثم انقر لمعرفة أرصاد وتوقعات الطقس.

لتغيير الخارطة: اضغط على الأزرار الخضراء مع رمز الصليب الأسود للتكبير. على الزر الأخضر مع شرطة للتصغير، أو على الأسهم الخضراء للخرائط المجاورة.


METAR-TAF: